createdAt,value
2019-04-23T00:02:53.512Z,97329.06
2019-04-23T00:13:15.087Z,97310.87
2019-04-23T00:18:22.245Z,97309.63
2019-04-23T00:23:32.872Z,97301.09
2019-04-23T00:28:35.944Z,97305.59
2019-04-23T00:33:59.047Z,97307.15
2019-04-23T00:44:01.959Z,97297.94
2019-04-23T00:49:05.791Z,97296.78
2019-04-23T00:54:14.411Z,97288.37
2019-04-23T00:59:12.599Z,97292.98
2019-04-23T01:04:28.257Z,97282.11
2019-04-23T01:09:39.086Z,97281.95
2019-04-23T01:14:38.496Z,97275.44
2019-04-23T01:19:54.715Z,97276.28
2019-04-23T01:25:11.272Z,97275.16
2019-04-23T01:30:34.116Z,97268.80
2019-04-23T01:35:50.513Z,97270.51
2019-04-23T01:41:02.027Z,97262.50
2019-04-23T01:45:54.622Z,97256.52
2019-04-23T01:50:57.526Z,97256.70
2019-04-23T01:56:14.775Z,97246.89
2019-04-23T02:01:19.132Z,97228.83
2019-04-23T02:06:29.705Z,97220.98
2019-04-23T02:11:31.657Z,97218.16
2019-04-23T02:16:40.799Z,97207.50
2019-04-23T02:21:55.166Z,97200.18
2019-04-23T02:27:02.648Z,97194.53
2019-04-23T02:37:22.416Z,97188.22
2019-04-23T02:42:39.614Z,97180.87
2019-04-23T02:47:32.590Z,97166.52
2019-04-23T02:52:37.266Z,97167.04
2019-04-23T02:57:44.205Z,97163.36
2019-04-23T03:03:01.202Z,97154.55
2019-04-23T03:13:24.929Z,97146.20
2019-04-23T03:28:47.143Z,97139.55
2019-04-23T03:34:31.973Z,97142.22
2019-04-23T03:44:14.145Z,97139.03
2019-04-23T03:49:07.431Z,97136.55
2019-04-23T03:54:28.406Z,97125.19
2019-04-23T03:59:28.537Z,97135.70
2019-04-23T04:09:45.723Z,97130.19
2019-04-23T04:19:49.781Z,97133.34
2019-04-23T04:25:03.263Z,97134.03
2019-04-23T04:30:22.333Z,97134.84
2019-04-23T04:40:29.542Z,97129.34
2019-04-23T04:45:43.226Z,97126.19
2019-04-23T04:51:00.379Z,97118.52
2019-04-23T04:55:58.224Z,97113.03
2019-04-23T05:01:09.433Z,97105.69
2019-04-23T05:21:21.263Z,97095.66
2019-04-23T05:26:29.256Z,97094.98
2019-04-23T05:31:32.560Z,97096.62
2019-04-23T05:41:52.562Z,97081.27
2019-04-23T05:52:00.324Z,97075.16
2019-04-23T05:57:11.590Z,97071.33
2019-04-23T06:02:20.286Z,97062.42
2019-04-23T06:07:42.473Z,97055.23
2019-04-23T06:12:31.464Z,97056.97
2019-04-23T06:17:37.945Z,97048.85
2019-04-23T06:22:51.151Z,97045.42
2019-04-23T06:27:57.996Z,97037.97
2019-04-23T06:33:11.160Z,97029.54
2019-04-23T06:43:22.692Z,97007.57
2019-04-23T06:48:32.206Z,97002.15
2019-04-23T06:53:28.611Z,97000.48
2019-04-23T07:03:50.311Z,96990.13
2019-04-23T07:13:58.416Z,96983.72
2019-04-23T07:19:17.819Z,96984.18
2019-04-23T07:24:15.273Z,96972.79
2019-04-23T07:29:28.931Z,96967.32
2019-04-23T07:34:28.234Z,96965.50
2019-04-23T07:39:59.007Z,96958.74
2019-04-23T07:45:17.409Z,96947.05
2019-04-23T07:55:34.714Z,96949.71
2019-04-23T08:05:55.573Z,96941.99
2019-04-23T08:11:30.596Z,96943.96
2019-04-23T08:16:23.314Z,96940.83
2019-04-23T08:21:21.207Z,96939.69
2019-04-23T08:31:43.919Z,96927.88
2019-04-23T08:36:48.645Z,96920.21
2019-04-23T08:42:09.448Z,96918.45
2019-04-23T08:47:10.351Z,96902.66
2019-04-23T08:52:11.774Z,96899.91
2019-04-23T09:02:35.395Z,96914.97
2019-04-23T09:07:28.200Z,96906.54
2019-04-23T09:17:47.688Z,96897.41
2019-04-23T09:22:51.807Z,96897.48
2019-04-23T09:27:59.796Z,96882.71
2019-04-23T09:33:39.453Z,96883.67
2019-04-23T09:39:04.571Z,96885.30
2019-04-23T09:44:51.084Z,96878.08
2019-04-23T09:49:54.787Z,96872.70
2019-04-23T09:54:51.339Z,96873.72
2019-04-23T09:59:48.871Z,96876.45
2019-04-23T10:04:48.850Z,96878.45
2019-04-23T10:09:40.422Z,96872.83
2019-04-23T10:14:53.888Z,96866.25
2019-04-23T10:19:53.125Z,96866.50
2019-04-23T10:24:59.427Z,96871.27
2019-04-23T10:30:06.198Z,96867.34
2019-04-23T10:35:22.145Z,96867.30
2019-04-23T10:40:26.286Z,96855.98
2019-04-23T10:46:07.987Z,96847.18
2019-04-23T10:56:43.351Z,96853.90
2019-04-23T11:01:43.611Z,96856.23
2019-04-23T11:06:50.130Z,96851.95
2019-04-23T11:12:12.322Z,96869.58
2019-04-23T11:17:16.982Z,96866.02
2019-04-23T11:22:36.184Z,96860.96
2019-04-23T11:27:40.565Z,96862.07
2019-04-23T11:32:46.715Z,96858.24
2019-04-23T11:53:02.646Z,96841.47
2019-04-23T12:03:17.789Z,96831.86
2019-04-23T12:08:43.139Z,96844.44
2019-04-23T12:25:06.496Z,96840.79
2019-04-23T12:29:49.085Z,96835.11
2019-04-23T12:45:24.988Z,96830.15
2019-04-23T12:55:39.978Z,96827.20
2019-04-23T13:00:37.295Z,96804.51
2019-04-23T13:05:57.329Z,96804.51
2019-04-23T13:16:05.880Z,96808.77
2019-04-23T13:21:14.295Z,96801.72
2019-04-23T13:26:10.100Z,96785.14
2019-04-23T13:31:26.655Z,96783.00
2019-04-23T13:36:41.794Z,96775.61
2019-04-23T13:41:52.161Z,96769.64
2019-04-23T13:46:49.475Z,96771.83
2019-04-23T13:52:02.446Z,96766.63
2019-04-23T14:02:16.955Z,96751.84
2019-04-23T14:07:24.572Z,96737.86
2019-04-23T14:12:25.695Z,96745.18
2019-04-23T14:17:46.770Z,96748.81
2019-04-23T14:27:52.132Z,96734.03
2019-04-23T14:32:53.731Z,96731.45
2019-04-23T14:38:18.997Z,96729.70
2019-04-23T14:48:14.832Z,96721.41
2019-04-23T14:53:27.223Z,96722.53
2019-04-23T14:58:36.852Z,96724.34
2019-04-23T15:03:44.951Z,96707.86
2019-04-23T15:13:49.952Z,96702.72
2019-04-23T15:19:28.516Z,96701.02
2019-04-23T15:24:27.847Z,96699.48
2019-04-23T15:29:19.684Z,96703.72
2019-04-23T15:34:36.491Z,96703.63
2019-04-23T15:39:56.619Z,96689.27
2019-04-23T15:44:55.825Z,96687.19
2019-04-23T15:50:10.961Z,96690.50
2019-04-23T15:55:05.878Z,96689.86
2019-04-23T16:00:15.941Z,96699.37
2019-04-23T16:04:55.939Z,96694.66
2019-04-23T16:10:29.490Z,96697.86
2019-04-23T16:20:54.474Z,96701.06
2019-04-23T16:25:51.812Z,96696.19
2019-04-23T16:31:08.062Z,96704.52
2019-04-23T16:36:12.605Z,96704.44
2019-04-23T16:41:20.057Z,96706.74
2019-04-23T16:51:38.995Z,96711.13
2019-04-23T16:56:55.242Z,96707.13
2019-04-23T17:06:52.376Z,96709.48
2019-04-23T17:13:46.646Z,96703.44
2019-04-23T17:18:44.271Z,96712.73
2019-04-23T17:24:15.401Z,96716.03
2019-04-23T17:39:18.087Z,96720.67
2019-04-23T17:49:44.593Z,96720.03
2019-04-23T17:54:48.427Z,96720.80
2019-04-23T18:05:06.478Z,96730.30
2019-04-23T18:10:18.319Z,96734.14
2019-04-23T18:15:15.161Z,96750.11
2019-04-23T18:20:52.178Z,96752.41
2019-04-23T18:31:11.060Z,96754.92
2019-04-23T18:36:08.234Z,96756.34
2019-04-23T18:41:10.721Z,96764.05
2019-04-23T18:51:37.070Z,96773.38
2019-04-23T18:56:59.478Z,96770.03
2019-04-23T19:02:07.992Z,96776.52
2019-04-23T19:07:27.384Z,96783.11
2019-04-23T19:12:36.614Z,96779.98
2019-04-23T19:17:46.646Z,96780.60
2019-04-23T19:22:53.072Z,96789.85
2019-04-23T19:27:59.011Z,96794.23
2019-04-23T19:33:13.878Z,96797.84
2019-04-23T19:38:21.340Z,96801.68
2019-04-23T19:43:45.145Z,96804.98
2019-04-23T19:53:59.584Z,96809.83
2019-04-23T20:03:54.077Z,96817.42
2019-04-23T20:14:25.208Z,96818.50
2019-04-23T20:19:28.649Z,96822.59
2019-04-23T20:24:37.635Z,96828.84
2019-04-23T20:34:59.146Z,96827.08
2019-04-23T20:40:08.235Z,96828.45
2019-04-23T20:45:16.289Z,96835.85
2019-04-23T20:50:18.165Z,96834.20
2019-04-23T20:55:40.903Z,96834.94
2019-04-23T21:00:54.957Z,96837.81
2019-04-23T21:05:50.013Z,96835.31
2019-04-23T21:10:55.363Z,96838.63
2019-04-23T21:16:08.957Z,96843.20
2019-04-23T21:21:18.221Z,96852.70
2019-04-23T21:26:16.715Z,96845.58
2019-04-23T21:31:25.542Z,96845.67
2019-04-23T21:52:05.124Z,96849.45
2019-04-23T21:57:14.636Z,96844.36
2019-04-23T22:07:40.745Z,96849.63
2019-04-23T22:12:46.849Z,96854.33
2019-04-23T22:17:44.591Z,96854.95
2019-04-23T22:27:58.196Z,96864.48
2019-04-23T22:33:09.617Z,96866.98
2019-04-23T22:43:20.302Z,96863.78
2019-04-23T22:48:34.291Z,96861.09
2019-04-23T22:53:41.712Z,96859.66
2019-04-23T22:59:01.528Z,96859.22
2019-04-23T23:09:25.941Z,96862.22
2019-04-23T23:14:27.957Z,96861.22
2019-04-23T23:19:54.345Z,96869.02
2019-04-23T23:24:48.455Z,96871.32
2019-04-23T23:29:58.090Z,96868.00
2019-04-23T23:35:16.159Z,96866.12
2019-04-23T23:40:15.255Z,96863.11
2019-04-23T23:45:19.647Z,96869.39
2019-04-23T23:55:27.336Z,96877.02
